createdAt,value
2018-05-25T00:00:49.853Z,95.69
2018-05-25T00:03:18.113Z,95.55
2018-05-25T00:05:47.241Z,95.28
2018-05-25T00:08:15.492Z,95.04
2018-05-25T00:10:44.748Z,95.04
2018-05-25T00:13:12.993Z,94.98
2018-05-25T00:15:41.255Z,94.85
2018-05-25T00:18:09.500Z,94.90
2018-05-25T00:20:37.777Z,94.91
2018-05-25T00:23:06.029Z,94.82
2018-05-25T00:25:34.278Z,94.79
2018-05-25T00:28:02.529Z,94.79
2018-05-25T00:30:30.788Z,94.89
2018-05-25T00:32:59.807Z,95.11
2018-05-25T00:35:28.065Z,95.24
2018-05-25T00:37:57.126Z,95.42
2018-05-25T00:40:26.898Z,95.50
2018-05-25T00:42:55.157Z,95.65
2018-05-25T00:45:23.400Z,95.71
2018-05-25T00:47:51.652Z,95.99
2018-05-25T00:50:19.915Z,96.21
2018-05-25T00:52:48.165Z,96.20
2018-05-25T00:55:41.739Z,96.32
2018-05-25T00:58:09.993Z,96.05
2018-05-25T01:00:38.268Z,95.95
2018-05-25T01:03:07.293Z,96.08
2018-05-25T01:05:35.554Z,96.20
2018-05-25T01:08:03.805Z,96.27
2018-05-25T01:10:32.816Z,96.32
2018-05-25T01:13:01.082Z,96.33
2018-05-25T01:15:29.336Z,96.46
2018-05-25T01:17:58.367Z,96.49
2018-05-25T01:20:26.624Z,96.57
2018-05-25T01:22:54.888Z,96.59
2018-05-25T01:25:23.908Z,96.77
2018-05-25T01:27:52.171Z,96.84
2018-05-25T01:30:20.452Z,96.80
2018-05-25T01:32:48.721Z,96.81
2018-05-25T01:35:16.977Z,96.90
2018-05-25T01:37:46.001Z,97.00
2018-05-25T01:40:14.265Z,97.01
2018-05-25T01:42:42.513Z,96.92
2018-05-25T01:45:10.776Z,96.97
2018-05-25T01:47:39.030Z,96.89
2018-05-25T01:50:07.300Z,96.79
2018-05-25T01:52:35.544Z,96.78
2018-05-25T01:55:03.803Z,96.78
2018-05-25T01:57:32.817Z,96.92
2018-05-25T02:00:01.077Z,96.79
2018-05-25T02:02:30.101Z,97.03
2018-05-25T02:04:58.358Z,97.16
2018-05-25T02:07:26.607Z,97.35
2018-05-25T02:09:54.864Z,97.45
2018-05-25T02:12:23.726Z,97.62
2018-05-25T02:14:51.981Z,97.72
2018-05-25T02:17:20.246Z,97.85
2018-05-25T02:19:49.279Z,97.95
2018-05-25T02:22:17.529Z,98.03
2018-05-25T02:24:45.780Z,98.11
2018-05-25T02:27:14.796Z,98.13
2018-05-25T02:29:43.063Z,98.11
2018-05-25T02:32:11.336Z,98.14
2018-05-25T02:34:39.584Z,98.08
2018-05-25T02:37:08.608Z,98.08
2018-05-25T02:39:36.862Z,98.12
2018-05-25T02:42:05.885Z,98.11
2018-05-25T02:44:34.135Z,98.08
2018-05-25T02:47:03.157Z,98.04
2018-05-25T02:49:32.433Z,97.96
2018-05-25T02:52:01.449Z,97.97
2018-05-25T02:54:29.696Z,98.03
2018-05-25T02:56:58.713Z,98.04
2018-05-25T02:59:26.956Z,97.96
2018-05-25T03:01:55.213Z,97.93
2018-05-25T03:04:23.476Z,98.00
2018-05-25T03:06:51.745Z,98.07
2018-05-25T03:09:20.001Z,98.08
2018-05-25T03:11:48.280Z,98.14
2018-05-25T03:14:16.524Z,98.08
2018-05-25T03:16:45.545Z,98.16
2018-05-25T03:19:13.809Z,98.21
2018-05-25T03:21:42.809Z,98.30
2018-05-25T03:24:11.908Z,98.40
2018-05-25T03:26:40.150Z,98.38
2018-05-25T03:29:09.178Z,98.31
2018-05-25T03:31:37.428Z,98.18
2018-05-25T03:34:06.457Z,98.16
2018-05-25T03:36:35.872Z,98.00
2018-05-25T03:39:04.346Z,97.99
2018-05-25T03:41:32.593Z,97.88
2018-05-25T03:44:00.858Z,97.64
2018-05-25T03:46:29.878Z,97.72
2018-05-25T03:48:58.136Z,97.84
2018-05-25T03:51:26.396Z,97.83
2018-05-25T03:53:55.412Z,97.86
2018-05-25T03:56:23.660Z,97.70
2018-05-25T03:59:09.862Z,97.75
2018-05-25T04:01:56.718Z,97.92
2018-05-25T04:04:25.837Z,97.79
2018-05-25T04:06:54.076Z,97.75
2018-05-25T04:09:22.327Z,97.79
2018-05-25T04:11:50.579Z,97.79
2018-05-25T04:14:19.639Z,97.80
2018-05-25T04:16:47.853Z,97.89
2018-05-25T04:19:16.877Z,97.82
2018-05-25T04:21:45.126Z,97.75
2018-05-25T04:24:13.376Z,97.74
2018-05-25T04:26:41.624Z,97.84
2018-05-25T04:29:09.886Z,97.92
2018-05-25T04:31:38.140Z,97.91
2018-05-25T04:34:07.168Z,97.75
2018-05-25T04:36:35.417Z,97.66
2018-05-25T04:39:03.670Z,97.46
2018-05-25T04:41:32.694Z,97.15
2018-05-25T04:44:00.945Z,96.71
2018-05-25T04:46:29.973Z,96.70
2018-05-25T04:48:58.215Z,96.78
2018-05-25T04:51:27.241Z,97.25
2018-05-25T04:53:55.490Z,97.35
2018-05-25T04:56:24.596Z,97.11
2018-05-25T04:58:52.903Z,97.03
2018-05-25T05:01:21.876Z,96.87
2018-05-25T05:03:50.123Z,96.61
2018-05-25T05:06:19.141Z,96.65
2018-05-25T05:08:47.395Z,96.61
2018-05-25T05:11:16.412Z,96.78
2018-05-25T05:13:45.573Z,96.95
2018-05-25T05:16:14.590Z,96.99
2018-05-25T05:18:42.846Z,96.40
2018-05-25T05:21:11.865Z,96.16
2018-05-25T05:23:40.132Z,95.82
2018-05-25T05:26:09.148Z,95.58
2018-05-25T05:28:37.400Z,95.44
2018-05-25T05:31:05.653Z,95.03
2018-05-25T05:33:33.954Z,95.41
2018-05-25T05:36:02.233Z,95.36
2018-05-25T05:38:30.485Z,95.09
2018-05-25T05:40:59.504Z,94.67
2018-05-25T05:43:27.757Z,94.91
2018-05-25T05:45:56.781Z,94.55
2018-05-25T05:48:25.024Z,94.48
2018-05-25T05:50:54.058Z,93.92
2018-05-25T05:53:22.298Z,94.58
2018-05-25T05:55:51.318Z,94.42
2018-05-25T05:58:19.572Z,94.24
2018-05-25T06:00:48.592Z,94.26
2018-05-25T06:03:16.851Z,93.56
2018-05-25T06:05:45.096Z,93.36
2018-05-25T06:08:13.356Z,93.03
2018-05-25T06:10:41.618Z,92.69
2018-05-25T06:13:09.875Z,93.09
2018-05-25T06:15:38.120Z,93.05
2018-05-25T06:18:07.142Z,92.39
2018-05-25T06:20:35.385Z,92.33
2018-05-25T06:23:04.406Z,92.08
2018-05-25T06:25:32.657Z,91.33
2018-05-25T06:28:00.916Z,90.68
2018-05-25T06:30:29.160Z,92.39
2018-05-25T06:32:57.427Z,91.43
2018-05-25T06:35:25.675Z,91.51
2018-05-25T06:37:53.925Z,91.60
2018-05-25T06:40:23.219Z,91.58
2018-05-25T06:42:52.251Z,91.11
2018-05-25T06:45:20.511Z,90.31
2018-05-25T06:47:48.768Z,89.12
2018-05-25T06:50:17.784Z,91.40
2018-05-25T06:52:46.053Z,90.27
2018-05-25T06:55:14.300Z,89.56
2018-05-25T06:57:42.552Z,89.46
2018-05-25T07:00:10.808Z,90.37
2018-05-25T07:02:39.059Z,88.80
2018-05-25T07:05:08.071Z,88.70
2018-05-25T07:07:36.318Z,89.49
2018-05-25T07:10:05.334Z,90.28
2018-05-25T07:12:33.586Z,87.89
2018-05-25T07:15:02.621Z,86.43
2018-05-25T07:17:30.861Z,86.34
2018-05-25T07:19:59.113Z,86.49
2018-05-25T07:22:27.365Z,84.76
2018-05-25T07:24:55.622Z,85.13
2018-05-25T07:27:23.872Z,83.74
2018-05-25T07:29:53.138Z,83.31
2018-05-25T07:32:21.387Z,83.98
2018-05-25T07:34:49.649Z,83.64
2018-05-25T07:37:17.905Z,83.95
2018-05-25T07:39:46.171Z,85.05
2018-05-25T07:42:14.444Z,84.54
2018-05-25T07:44:42.724Z,82.19
2018-05-25T07:47:10.970Z,82.82
2018-05-25T07:49:39.236Z,81.39
2018-05-25T07:52:07.486Z,81.39
2018-05-25T07:54:35.735Z,81.01
2018-05-25T07:57:03.992Z,79.58
2018-05-25T07:59:32.245Z,79.43
2018-05-25T08:02:01.278Z,78.02
2018-05-25T08:04:29.532Z,78.11
2018-05-25T08:06:57.797Z,77.01
2018-05-25T08:09:26.813Z,79.97
2018-05-25T08:11:55.077Z,79.28
2018-05-25T08:14:24.095Z,79.11
2018-05-25T08:16:52.341Z,77.88
2018-05-25T08:19:21.361Z,77.70
2018-05-25T08:21:49.619Z,79.30
2018-05-25T08:24:18.629Z,76.34
2018-05-25T08:26:46.905Z,78.13
2018-05-25T08:29:15.154Z,77.88
2018-05-25T08:31:44.176Z,77.78
2018-05-25T08:34:12.428Z,78.31
2018-05-25T08:36:40.683Z,77.07
2018-05-25T08:39:08.934Z,77.76
2018-05-25T08:41:37.196Z,76.79
2018-05-25T08:44:05.467Z,76.27
2018-05-25T08:46:33.731Z,76.85
2018-05-25T08:49:01.989Z,77.60
2018-05-25T08:51:30.251Z,77.01
2018-05-25T08:53:59.269Z,77.87
2018-05-25T08:56:27.546Z,77.08
2018-05-25T08:58:55.810Z,78.21
2018-05-25T09:01:24.063Z,77.21
2018-05-25T09:03:53.094Z,76.01
2018-05-25T09:06:21.427Z,74.23
2018-05-25T09:08:49.614Z,74.64
2018-05-25T09:11:18.870Z,74.60
2018-05-25T09:13:47.134Z,75.03
2018-05-25T09:16:15.373Z,74.09
2018-05-25T09:18:44.770Z,75.75
2018-05-25T09:21:13.789Z,76.37
2018-05-25T09:23:42.169Z,75.44
2018-05-25T09:26:10.422Z,74.48
2018-05-25T09:28:40.361Z,74.84
2018-05-25T09:31:08.607Z,73.10
2018-05-25T09:33:37.643Z,72.78
2018-05-25T09:36:05.901Z,71.12
2018-05-25T09:38:34.246Z,72.48
2018-05-25T09:41:02.604Z,71.35
2018-05-25T09:43:31.006Z,70.43
2018-05-25T09:46:00.167Z,69.50
2018-05-25T09:48:28.482Z,69.76
2018-05-25T09:50:57.580Z,69.93
2018-05-25T09:53:26.623Z,67.93
2018-05-25T09:55:55.157Z,66.94
2018-05-25T09:58:23.475Z,68.91
2018-05-25T10:00:51.851Z,67.80
2018-05-25T10:03:20.197Z,66.54
2018-05-25T10:05:48.532Z,66.08
2018-05-25T10:08:16.842Z,64.34
2018-05-25T10:10:45.929Z,64.36
2018-05-25T10:13:14.997Z,64.74
2018-05-25T10:15:43.313Z,65.97
2018-05-25T10:18:11.643Z,64.35
2018-05-25T10:20:39.936Z,65.81
2018-05-25T10:23:08.238Z,66.52
2018-05-25T10:25:37.301Z,65.85
2018-05-25T10:28:05.615Z,65.07
2018-05-25T10:30:33.909Z,64.41
2018-05-25T10:33:02.180Z,62.46
2018-05-25T10:35:30.485Z,62.26
2018-05-25T10:37:58.777Z,61.70
2018-05-25T10:40:27.295Z,59.29
2018-05-25T10:42:56.313Z,60.21
2018-05-25T10:45:24.567Z,63.00
2018-05-25T10:47:52.820Z,63.73
2018-05-25T10:50:21.858Z,64.40
2018-05-25T10:52:50.111Z,62.38
2018-05-25T10:55:18.378Z,60.14
2018-05-25T10:57:47.399Z,57.64
2018-05-25T11:00:15.649Z,60.14
2018-05-25T11:02:44.682Z,59.42
2018-05-25T11:05:12.932Z,55.31
2018-05-25T11:07:41.300Z,56.48
2018-05-25T11:10:10.314Z,50.87
2018-05-25T11:12:38.581Z,54.16
2018-05-25T11:15:06.830Z,52.70
2018-05-25T11:17:35.852Z,48.88
2018-05-25T11:20:04.105Z,52.95
2018-05-25T11:22:33.123Z,51.48
2018-05-25T11:25:02.569Z,54.35
2018-05-25T11:27:30.827Z,55.73
2018-05-25T11:29:59.075Z,56.16
2018-05-25T11:32:27.324Z,54.67
2018-05-25T11:34:56.351Z,54.37
2018-05-25T11:37:24.603Z,51.26
2018-05-25T11:39:53.609Z,52.67
2018-05-25T11:42:21.873Z,53.63
2018-05-25T11:44:50.888Z,53.72
2018-05-25T11:47:19.148Z,54.37
2018-05-25T11:49:47.397Z,51.10
2018-05-25T11:52:15.665Z,52.76
2018-05-25T11:54:43.926Z,53.05
2018-05-25T11:57:12.183Z,53.34
2018-05-25T11:59:40.450Z,54.19
2018-05-25T12:02:08.709Z,54.45
2018-05-25T12:04:36.966Z,53.41
2018-05-25T12:07:05.986Z,54.80
2018-05-25T12:09:34.237Z,52.08
2018-05-25T12:12:03.257Z,49.16
2018-05-25T12:14:31.538Z,49.74
2018-05-25T12:16:59.788Z,49.08
2018-05-25T12:19:28.038Z,50.29
2018-05-25T12:21:56.297Z,46.76
2018-05-25T12:24:24.552Z,48.01
2018-05-25T12:26:52.804Z,45.89
2018-05-25T12:29:21.056Z,46.20
2018-05-25T12:31:50.082Z,46.97
2018-05-25T12:34:18.338Z,48.00
2018-05-25T12:36:46.588Z,47.23
2018-05-25T12:39:14.848Z,48.61
2018-05-25T12:41:43.097Z,49.58
2018-05-25T12:44:11.353Z,47.68
2018-05-25T12:46:39.599Z,45.32
2018-05-25T12:49:08.623Z,44.63
2018-05-25T12:51:36.874Z,44.98
2018-05-25T12:54:05.904Z,43.10
2018-05-25T12:56:34.154Z,44.60
2018-05-25T12:59:02.418Z,42.99
2018-05-25T13:01:31.433Z,41.11
2018-05-25T13:03:59.686Z,42.66
2018-05-25T13:06:28.708Z,42.66
2018-05-25T13:08:56.956Z,42.41
2018-05-25T13:11:25.982Z,40.69
2018-05-25T13:13:54.229Z,45.31
2018-05-25T13:16:22.492Z,45.09
2018-05-25T13:18:51.515Z,49.25
2018-05-25T13:21:19.779Z,48.20
2018-05-25T13:23:48.793Z,49.76
2018-05-25T13:26:17.048Z,50.32
2018-05-25T13:28:45.297Z,50.86
2018-05-25T13:31:13.576Z,52.15
2018-05-25T13:33:41.805Z,52.79
2018-05-25T13:36:10.070Z,54.23
2018-05-25T13:38:38.322Z,54.75
2018-05-25T13:41:06.590Z,55.98
2018-05-25T13:43:35.610Z,55.64
2018-05-25T13:46:03.857Z,53.54
2018-05-25T13:48:32.879Z,52.31
2018-05-25T13:51:01.138Z,51.42
2018-05-25T13:53:29.384Z,52.39
2018-05-25T13:55:57.641Z,51.03
2018-05-25T13:58:25.890Z,52.34
2018-05-25T14:00:54.140Z,52.56
2018-05-25T14:03:22.389Z,51.87
2018-05-25T14:05:51.406Z,52.08
2018-05-25T14:08:19.656Z,50.05
2018-05-25T14:10:48.674Z,49.79
2018-05-25T14:13:16.929Z,44.66
2018-05-25T14:15:45.949Z,39.10
2018-05-25T14:18:14.209Z,41.37
2018-05-25T14:20:43.225Z,41.59
2018-05-25T14:23:11.492Z,41.93
2018-05-25T14:25:39.737Z,41.26
2018-05-25T14:28:07.996Z,46.05
2018-05-25T14:30:36.251Z,47.82
2018-05-25T14:33:04.511Z,52.19
2018-05-25T14:35:32.752Z,50.47
2018-05-25T14:38:01.782Z,52.27
2018-05-25T14:40:30.035Z,51.57
2018-05-25T14:42:58.295Z,52.53
2018-05-25T14:45:27.305Z,48.85
2018-05-25T14:47:55.571Z,44.45
2018-05-25T14:50:24.586Z,45.01
2018-05-25T14:52:52.849Z,46.25
2018-05-25T14:55:21.102Z,48.04
2018-05-25T14:57:50.129Z,48.55
2018-05-25T15:00:18.376Z,51.81
2018-05-25T15:02:47.399Z,47.05
2018-05-25T15:05:15.657Z,48.34
2018-05-25T15:07:44.687Z,50.50
2018-05-25T15:10:12.938Z,50.97
2018-05-25T15:12:41.190Z,48.69
2018-05-25T15:15:10.216Z,48.06
2018-05-25T15:17:38.468Z,49.25
2018-05-25T15:20:07.492Z,51.54
2018-05-25T15:22:35.742Z,48.88
2018-05-25T15:25:03.997Z,46.28
2018-05-25T15:27:33.010Z,45.75
2018-05-25T15:30:01.280Z,47.41
2018-05-25T15:32:30.304Z,48.98
2018-05-25T15:34:58.575Z,48.59
2018-05-25T15:37:26.828Z,47.28
2018-05-25T15:39:55.079Z,48.11
2018-05-25T15:42:24.104Z,45.60
2018-05-25T15:44:52.358Z,45.12
2018-05-25T15:47:21.386Z,49.92
2018-05-25T15:49:49.644Z,46.25
2018-05-25T15:52:17.895Z,50.47
2018-05-25T15:54:46.918Z,47.89
2018-05-25T15:57:15.172Z,48.92
2018-05-25T15:59:44.196Z,50.79
2018-05-25T16:02:12.462Z,51.57
2018-05-25T16:04:40.700Z,52.23
2018-05-25T16:07:08.972Z,52.29
2018-05-25T16:09:37.238Z,52.69
2018-05-25T16:12:07.003Z,52.01
2018-05-25T16:14:35.258Z,52.92
2018-05-25T16:17:04.269Z,52.92
2018-05-25T16:19:32.528Z,53.57
2018-05-25T16:22:01.552Z,55.51
2018-05-25T16:24:29.802Z,56.78
2018-05-25T16:26:58.054Z,56.00
2018-05-25T16:29:26.301Z,57.83
2018-05-25T16:31:54.566Z,58.79
2018-05-25T16:34:22.813Z,60.16
2018-05-25T16:36:51.077Z,59.35
2018-05-25T16:39:19.346Z,60.17
2018-05-25T16:41:48.360Z,59.77
2018-05-25T16:44:16.614Z,59.98
2018-05-25T16:46:45.637Z,60.43
2018-05-25T16:49:13.889Z,55.45
2018-05-25T16:51:42.911Z,56.14
2018-05-25T16:54:11.154Z,56.66
2018-05-25T16:56:40.170Z,59.45
2018-05-25T16:59:08.417Z,59.47
2018-05-25T17:01:37.444Z,56.92
2018-05-25T17:04:05.692Z,55.54
2018-05-25T17:06:34.733Z,57.27
2018-05-25T17:09:02.981Z,56.65
2018-05-25T17:11:31.237Z,54.78
2018-05-25T17:14:00.266Z,53.04
2018-05-25T17:16:28.521Z,56.75
2018-05-25T17:18:56.780Z,59.77
2018-05-25T17:21:25.794Z,59.16
2018-05-25T17:23:54.054Z,60.56
2018-05-25T17:26:22.314Z,61.59
2018-05-25T17:28:51.334Z,62.31
2018-05-25T17:31:19.590Z,61.50
2018-05-25T17:33:48.622Z,60.89
2018-05-25T17:36:16.873Z,61.11
2018-05-25T17:38:46.883Z,61.61
2018-05-25T17:41:15.141Z,62.14
2018-05-25T17:43:43.406Z,62.72
2018-05-25T17:46:11.650Z,61.41
2018-05-25T17:48:39.914Z,60.35
2018-05-25T17:51:08.158Z,58.76
2018-05-25T17:53:37.204Z,57.79
2018-05-25T17:56:05.468Z,57.30
2018-05-25T17:58:33.732Z,58.50
2018-05-25T18:01:01.977Z,59.84
2018-05-25T18:03:31.007Z,60.40
2018-05-25T18:05:59.282Z,60.52
2018-05-25T18:08:27.531Z,59.64
2018-05-25T18:10:55.784Z,59.43
2018-05-25T18:13:24.801Z,60.16
2018-05-25T18:15:53.060Z,61.08
2018-05-25T18:18:22.074Z,60.78
2018-05-25T18:20:50.330Z,60.95
2018-05-25T18:23:19.345Z,61.40
2018-05-25T18:25:47.608Z,61.75
2018-05-25T18:28:15.861Z,62.02
2018-05-25T18:30:45.050Z,62.47
2018-05-25T18:33:13.361Z,63.35
2018-05-25T18:35:41.622Z,64.07
2018-05-25T18:38:11.453Z,64.44
2018-05-25T18:40:39.706Z,64.56
2018-05-25T18:43:08.718Z,64.62
2018-05-25T18:45:36.975Z,65.22
2018-05-25T18:48:05.989Z,66.18
2018-05-25T18:50:34.253Z,66.84
2018-05-25T18:53:04.290Z,67.47
2018-05-25T18:55:32.549Z,68.42
2018-05-25T18:58:01.601Z,68.07
2018-05-25T19:00:29.860Z,69.04
2018-05-25T19:02:58.109Z,68.82
2018-05-25T19:05:26.365Z,70.12
2018-05-25T19:07:55.383Z,71.22
2018-05-25T19:10:24.434Z,71.65
2018-05-25T19:12:52.680Z,72.26
2018-05-25T19:15:20.937Z,72.63
2018-05-25T19:17:49.268Z,72.63
2018-05-25T19:20:17.512Z,73.23
2018-05-25T19:22:45.831Z,73.05
2018-05-25T19:25:14.858Z,73.31
2018-05-25T19:27:43.115Z,73.54
2018-05-25T19:30:11.363Z,73.80
2018-05-25T19:32:39.621Z,74.21
2018-05-25T19:35:07.903Z,74.22
2018-05-25T19:37:36.982Z,74.59
2018-05-25T19:40:05.235Z,75.01
2018-05-25T19:42:33.485Z,75.06
2018-05-25T19:45:01.755Z,75.54
2018-05-25T19:47:30.024Z,76.24
2018-05-25T19:49:59.045Z,76.73
2018-05-25T19:52:27.302Z,76.79
2018-05-25T19:54:55.559Z,77.34
2018-05-25T19:57:24.599Z,77.60
2018-05-25T19:59:52.840Z,77.41
2018-05-25T20:02:21.865Z,77.46
2018-05-25T20:04:50.130Z,77.71
2018-05-25T20:07:18.478Z,77.62
2018-05-25T20:09:47.507Z,78.25
2018-05-25T20:12:15.754Z,78.37
2018-05-25T20:14:44.018Z,78.64
2018-05-25T20:17:13.046Z,78.98
2018-05-25T20:19:41.358Z,79.01
2018-05-25T20:22:09.848Z,79.14
2018-05-25T20:24:38.101Z,78.83
2018-05-25T20:27:06.413Z,79.17
2018-05-25T20:29:35.450Z,79.48
2018-05-25T20:32:03.699Z,80.20
2018-05-25T20:34:32.725Z,80.27
2018-05-25T20:37:01.109Z,80.95
2018-05-25T20:39:29.370Z,81.15
2018-05-25T20:41:57.621Z,81.55
2018-05-25T20:44:26.651Z,81.40
2018-05-25T20:46:54.950Z,81.63
2018-05-25T20:49:23.202Z,81.94
2018-05-25T20:51:51.464Z,82.00
2018-05-25T20:54:19.730Z,82.29
2018-05-25T20:56:47.998Z,82.48
2018-05-25T20:59:16.256Z,82.64
2018-05-25T21:01:45.268Z,82.74
2018-05-25T21:04:13.629Z,82.60
2018-05-25T21:06:41.884Z,82.42
2018-05-25T21:09:10.267Z,82.81
2018-05-25T21:11:38.515Z,82.45
2018-05-25T21:14:06.908Z,82.98
2018-05-25T21:16:35.167Z,83.63
2018-05-25T21:19:03.441Z,83.81
2018-05-25T21:21:31.736Z,84.01
2018-05-25T21:23:59.998Z,84.18
2018-05-25T21:26:28.275Z,84.90
2018-05-25T21:28:56.560Z,85.11
2018-05-25T21:31:25.587Z,85.22
2018-05-25T21:33:54.600Z,85.26
2018-05-25T21:36:22.856Z,85.17
2018-05-25T21:38:51.874Z,85.11
2018-05-25T21:41:20.143Z,85.31
2018-05-25T21:43:48.424Z,85.53
2018-05-25T21:46:16.731Z,85.73
2018-05-25T21:48:45.001Z,85.78
2018-05-25T21:51:13.284Z,85.95
2018-05-25T21:53:41.537Z,85.59
2018-05-25T21:56:09.790Z,85.27
2018-05-25T21:58:38.801Z,85.26
2018-05-25T22:01:07.065Z,84.97
2018-05-25T22:03:35.340Z,84.71
2018-05-25T22:06:04.357Z,84.54
2018-05-25T22:08:32.607Z,84.28
2018-05-25T22:11:01.634Z,84.34
2018-05-25T22:13:29.942Z,84.20
2018-05-25T22:15:58.187Z,84.22
2018-05-25T22:18:26.434Z,84.29
2018-05-25T22:20:54.685Z,84.70
2018-05-25T22:23:23.805Z,85.56
2018-05-25T22:25:52.076Z,85.78
2018-05-25T22:28:21.086Z,85.92
2018-05-25T22:30:49.336Z,85.94
2018-05-25T22:33:18.374Z,85.72
2018-05-25T22:35:46.615Z,85.20
2018-05-25T22:38:14.868Z,84.75
2018-05-25T22:40:43.889Z,84.49
2018-05-25T22:43:30.005Z,83.93
2018-05-25T22:46:16.096Z,83.75
2018-05-25T22:49:02.226Z,83.55
2018-05-25T22:51:48.274Z,83.79
2018-05-25T22:54:34.705Z,83.79
2018-05-25T22:57:02.967Z,83.79
2018-05-25T22:59:31.210Z,83.90
2018-05-25T23:01:59.480Z,84.14
2018-05-25T23:04:28.494Z,84.31
2018-05-25T23:06:56.755Z,85.15
2018-05-25T23:09:25.053Z,86.06
2018-05-25T23:11:54.043Z,86.05
2018-05-25T23:14:23.453Z,86.00
2018-05-25T23:16:51.715Z,85.84
2018-05-25T23:19:20.611Z,85.74
2018-05-25T23:21:48.867Z,86.16
2018-05-25T23:24:17.117Z,86.32
2018-05-25T23:26:45.383Z,86.85
2018-05-25T23:29:13.633Z,87.11
2018-05-25T23:31:41.876Z,87.28
2018-05-25T23:34:10.139Z,88.18
2018-05-25T23:36:39.146Z,88.41
2018-05-25T23:39:07.405Z,88.44
2018-05-25T23:41:36.423Z,88.61
2018-05-25T23:44:04.682Z,88.98
2018-05-25T23:46:32.934Z,88.99
2018-05-25T23:49:01.961Z,88.99
2018-05-25T23:51:30.221Z,88.88
2018-05-25T23:53:59.237Z,89.25
2018-05-25T23:56:27.484Z,90.28
2018-05-25T23:58:56.505Z,90.40
